Time;durP1;ratioP1;P1;durP2;ratioP2;P2;SDS_P1;SDS_P2;PMS_P1;PMS_P2;Temp;Humidity;BMP_temperature;BMP_pressure;BME280_temperature;BME280_humidity;BME280_pressure;Samples;Min_cycle;Max_cycle;Signal;HPM_P1;HPM_P2
2022/08/30 04:04:31;;;;;;;10.25;7.57;;;;;;;22.32;76.24;100718.66;5606220;31;76338;-56
2022/08/30 04:07:34;;;;;;;10.52;8.00;;;;;;;22.32;76.24;100718.66;5583924;32;33373;-56
2022/08/30 04:10:37;;;;;;;12.90;7.95;;;;;;;21.80;77.61;100716.88;5583651;32;34391;-57
2022/08/30 04:13:39;;;;;;;9.07;7.72;;;;;;;21.84;77.64;100712.28;5583571;32;33577;-56
2022/08/30 04:16:41;;;;;;;10.10;7.90;;;;;;;21.91;77.66;100709.75;5583840;32;33722;-57
2022/08/30 04:19:44;;;;;;;12.07;7.65;;;;;;;21.88;77.18;100717.84;5583637;31;34283;-57
2022/08/30 04:22:46;;;;;;;8.45;7.40;;;;;;;21.91;77.43;100731.59;5583390;32;33572;-57
2022/08/30 04:25:48;;;;;;;8.38;7.00;;;;;;;21.97;77.02;100730.19;5583737;31;33638;-57
2022/08/30 04:28:53;;;;;;;8.18;7.37;;;;;;;22.00;77.13;100737.69;5583849;32;33685;-56
2022/08/30 04:31:55;;;;;;;9.88;7.32;;;;;;;21.95;77.31;100743.41;5583438;31;34296;-56
2022/08/30 04:34:58;;;;;;;10.45;8.20;;;;;;;21.96;77.14;100750.44;5583501;32;33732;-57
2022/08/30 04:38:01;;;;;;;10.80;8.00;;;;;;;21.94;77.21;100755.47;5583662;31;33761;-57
2022/08/30 04:41:15;;;;;;;8.75;7.10;;;;;;;22.00;77.06;100758.75;5583433;32;33729;-57
2022/08/30 04:44:17;;;;;;;12.52;7.35;;;;;;;22.03;77.04;100761.56;5583450;31;33571;-57
2022/08/30 04:47:20;;;;;;;12.00;7.68;;;;;;;22.12;76.09;100764.16;5579744;31;34272;-57
2022/08/30 04:50:23;;;;;;;9.35;7.35;;;;;;;22.25;75.95;100770.34;5583324;31;33540;-57
2022/08/30 04:53:25;;;;;;;9.25;7.65;;;;;;;22.37;75.78;100769.50;5581605;31;34227;-57
2022/08/30 04:56:27;;;;;;;10.60;7.30;;;;;;;22.45;75.24;100772.06;5580751;32;34328;-57
2022/08/30 04:59:29;;;;;;;11.68;8.25;;;;;;;22.50;74.97;100776.47;5581176;32;34229;-57
2022/08/30 05:02:31;;;;;;;13.60;7.72;;;;;;;22.58;74.56;100777.44;5580977;31;33365;-57
2022/08/30 05:05:40;;;;;;;12.15;6.72;;;;;;;22.48;72.81;100778.75;5570565;32;33564;-56
2022/08/30 05:08:42;;;;;;;18.02;7.60;;;;;;;22.57;70.55;100768.47;5583196;31;33829;-57
2022/08/30 05:11:47;;;;;;;10.88;7.40;;;;;;;22.64;70.83;100781.50;5582712;31;33721;-56
2022/08/30 05:14:50;;;;;;;10.23;7.45;;;;;;;22.75;69.39;100777.13;5573157;32;33584;-58
2022/08/30 05:17:52;;;;;;;9.57;7.55;;;;;;;22.86;67.49;100783.63;5568568;32;34396;-56
2022/08/30 05:21:12;;;;;;;8.98;7.20;;;;;;;22.99;63.46;100781.62;5569190;32;33798;-56
2022/08/30 05:24:14;;;;;;;10.50;7.30;;;;;;;23.15;61.65;100781.59;5569129;32;33624;-57
2022/08/30 05:27:16;;;;;;;12.55;7.57;;;;;;;23.25;63.71;100791.22;5568916;32;34352;-56
2022/08/30 05:30:22;;;;;;;10.10;6.97;;;;;;;23.14;60.25;100786.25;5567248;32;33330;-57
2022/08/30 05:33:25;;;;;;;8.32;7.03;;;;;;;23.13;60.80;100778.44;5568660;32;34253;-57
2022/08/30 05:36:30;;;;;;;13.02;7.18;;;;;;;23.16;60.43;100780.44;5569047;32;34289;-56
2022/08/30 05:39:32;;;;;;;9.20;6.93;;;;;;;23.16;61.63;100777.72;5568936;32;33582;-57
2022/08/30 05:42:51;;;;;;;16.15;7.53;;;;;;;23.17;62.21;100784.75;5566189;32;33791;-57
2022/08/30 05:46:02;;;;;;;13.73;7.22;;;;;;;23.31;61.86;100782.37;5567053;32;33689;-56
2022/08/30 05:49:06;;;;;;;10.82;7.20;;;;;;;23.40;60.70;100785.69;5567087;32;34435;-57
2022/08/30 05:52:08;;;;;;;9.75;6.62;;;;;;;23.52;59.73;100793.00;5568962;32;34372;-57
2022/08/30 05:55:11;;;;;;;19.42;7.55;;;;;;;23.52;60.15;100787.50;5566025;32;33764;-57
2022/08/30 05:58:14;;;;;;;10.60;6.53;;;;;;;23.48;60.93;100792.13;5568175;32;33650;-57
2022/08/30 06:01:29;;;;;;;16.62;7.07;;;;;;;23.49;58.80;100793.69;5566415;32;34252;-56
2022/08/30 06:04:31;;;;;;;11.02;7.25;;;;;;;23.50;59.02;100803.47;5549391;32;33757;-56
2022/08/30 06:07:34;;;;;;;9.43;6.60;;;;;;;23.51;57.92;100799.63;5562834;32;33480;-56
2022/08/30 06:10:37;;;;;;;11.57;6.65;;;;;;;23.53;58.25;100796.50;5568183;32;33903;-57
2022/08/30 06:13:40;;;;;;;9.60;7.25;;;;;;;23.48;59.05;100794.88;5566279;32;32062;-56
2022/08/30 06:16:44;;;;;;;10.38;7.30;;;;;;;23.50;58.45;100794.50;5566704;32;33674;-57
2022/08/30 06:19:47;;;;;;;11.38;7.25;;;;;;;23.61;58.72;100801.00;5567049;32;33772;-57
2022/08/30 06:22:49;;;;;;;12.98;6.68;;;;;;;23.68;57.27;100804.72;5568551;32;33763;-56
2022/08/30 06:25:51;;;;;;;13.55;6.97;;;;;;;23.71;58.56;100802.38;5563293;32;34287;-57
2022/08/30 06:28:55;;;;;;;11.20;6.90;;;;;;;23.73;58.09;100816.53;5566256;32;33181;-57
2022/08/30 06:31:57;;;;;;;15.93;7.50;;;;;;;23.78;58.03;100805.31;5566732;32;33804;-57
2022/08/30 06:34:59;;;;;;;15.70;7.57;;;;;;;23.78;59.31;100803.34;5564895;32;33571;-56
2022/08/30 06:38:02;;;;;;;12.18;7.53;;;;;;;23.82;58.85;100804.22;5563908;32;34284;-56
2022/08/30 06:41:10;;;;;;;17.25;6.90;;;;;;;23.88;58.65;100805.50;5564002;32;33634;-57
2022/08/30 06:44:12;;;;;;;11.07;7.12;;;;;;;23.95;58.01;100806.81;5568189;32;34208;-57
2022/08/30 06:47:15;;;;;;;11.32;6.37;;;;;;;23.95;58.08;100807.59;5566255;32;34327;-56
2022/08/30 06:50:18;;;;;;;10.77;7.10;;;;;;;24.01;58.03;100810.84;5568117;32;33718;-57
2022/08/30 06:53:21;;;;;;;9.52;6.82;;;;;;;24.10;58.04;100805.94;5568377;32;33646;-57
2022/08/30 06:56:24;;;;;;;9.57;6.43;;;;;;;24.12;57.71;100803.63;5567721;32;34473;-57
2022/08/30 06:59:30;;;;;;;11.38;6.47;;;;;;;24.19;57.62;100803.75;5568222;32;33789;-56
2022/08/30 07:02:32;;;;;;;10.63;6.22;;;;;;;24.32;57.53;100802.44;5566994;32;33680;-57
2022/08/30 07:05:34;;;;;;;11.20;6.43;;;;;;;24.41;57.35;100818.69;5564547;32;33356;-57
2022/08/30 07:08:37;;;;;;;13.23;6.28;;;;;;;24.33;56.16;100817.72;5563936;32;34763;-56
2022/08/30 07:11:40;;;;;;;11.93;6.18;;;;;;;24.35;56.50;100815.41;5567207;32;33622;-57
2022/08/30 07:14:42;;;;;;;18.33;6.60;;;;;;;24.43;56.42;100815.56;5567196;32;33645;-57
2022/08/30 07:21:14;;;;;;;9.50;5.80;;;;;;;24.65;56.23;100820.28;5564865;32;33983;-57
2022/08/30 07:24:17;;;;;;;11.60;5.95;;;;;;;24.66;53.90;100821.88;5561394;32;33195;-57
2022/08/30 07:27:21;;;;;;;10.30;6.18;;;;;;;24.67;53.38;100812.50;5559121;32;33588;-56
2022/08/30 07:30:24;;;;;;;7.18;4.93;;;;;;;24.84;55.89;100820.22;5561759;32;33581;-56
2022/08/30 07:33:26;;;;;;;21.65;6.25;;;;;;;24.95;55.24;100823.16;5567483;32;33612;-57
2022/08/30 07:36:31;;;;;;;8.87;5.63;;;;;;;25.03;54.78;100824.84;5565719;32;33677;-56
2022/08/30 07:39:35;;;;;;;11.02;5.45;;;;;;;25.16;54.00;100819.97;5567510;32;33570;-57
2022/08/30 07:42:49;;;;;;;7.57;5.05;;;;;;;25.14;50.53;100827.00;5567080;32;33606;-58
2022/08/30 07:45:53;;;;;;;7.57;5.35;;;;;;;24.93;51.26;100830.94;5566246;32;33669;-57
2022/08/30 07:48:58;;;;;;;7.07;4.80;;;;;;;24.95;51.41;100838.81;5566404;32;33681;-56
2022/08/30 07:52:00;;;;;;;8.68;5.65;;;;;;;24.95;51.34;100827.84;5566041;32;34225;-56
2022/08/30 07:55:03;;;;;;;10.90;5.37;;;;;;;24.98;51.57;100825.16;5567147;32;33661;-57
2022/08/30 07:58:06;;;;;;;8.45;5.57;;;;;;;24.97;52.14;100831.03;5563973;32;33777;-57
2022/08/30 08:01:10;;;;;;;12.07;5.12;;;;;;;24.97;51.76;100829.06;5567407;32;33615;-56
2022/08/30 08:04:13;;;;;;;15.93;6.00;;;;;;;24.98;53.20;100838.06;5565684;32;33619;-57
2022/08/30 08:07:15;;;;;;;16.98;5.80;;;;;;;25.09;53.59;100828.84;5565357;32;33616;-57
2022/08/30 08:10:18;;;;;;;11.73;5.95;;;;;;;25.19;53.34;100827.47;5550400;32;33597;-57
2022/08/30 08:13:20;;;;;;;11.82;6.10;;;;;;;25.23;50.74;100830.25;5566215;32;33647;-54
2022/08/30 08:16:26;;;;;;;18.05;6.57;;;;;;;25.21;51.97;100827.91;5561365;32;34131;-54
2022/08/30 08:19:28;;;;;;;;;;;;;;;25.21;53.61;100832.59;5565129;32;34203;-54
2022/08/30 08:22:30;;;;;;;13.68;6.28;;;;;;;25.29;53.57;100826.81;5567579;32;33944;-54
2022/08/30 08:25:37;;;;;;;8.70;5.68;;;;;;;25.47;53.26;100829.06;5563246;32;33685;-54
2022/08/30 08:28:41;;;;;;;6.62;5.22;;;;;;;25.32;50.90;100825.31;5563264;32;33758;-55
2022/08/30 08:31:45;;;;;;;16.08;5.80;;;;;;;25.28;50.92;100832.69;5556824;32;33680;-54
2022/08/30 08:34:48;;;;;;;12.82;5.78;;;;;;;25.22;52.41;100829.47;5565426;32;34375;-55
2022/08/30 08:37:51;;;;;;;10.00;6.05;;;;;;;25.24;51.11;100840.09;5565953;32;31351;-54
2022/08/30 08:41:04;;;;;;;10.70;5.93;;;;;;;25.19;50.66;100841.19;5564465;32;33680;-54
2022/08/30 08:44:16;;;;;;;9.55;5.47;;;;;;;25.14;51.66;100841.50;5550496;32;33584;-55
2022/08/30 08:47:45;;;;;;;19.15;6.15;;;;;;;25.17;52.75;100838.03;5554248;32;34444;-54
2022/08/30 08:54:14;;;;;;;9.25;5.57;;;;;;;25.17;51.06;100829.81;5560243;32;33628;-54
2022/08/30 08:57:17;;;;;;;9.80;5.93;;;;;;;25.12;50.64;100829.31;5559409;32;33882;-55
2022/08/30 09:00:25;;;;;;;14.40;5.85;;;;;;;25.18;50.74;100828.62;5570114;32;33570;-55
2022/08/30 09:03:28;;;;;;;11.88;5.82;;;;;;;25.19;50.87;100829.41;5567686;32;34228;-54
2022/08/30 09:06:50;;;;;;;14.48;6.32;;;;;;;25.30;50.95;100831.19;5565947;32;34303;-55
2022/08/30 09:09:52;;;;;;;12.57;5.72;;;;;;;25.33;52.06;100824.16;5562366;32;33784;-54
2022/08/30 09:12:54;;;;;;;14.68;6.50;;;;;;;25.39;51.99;100816.37;5569940;32;33790;-54
2022/08/30 09:16:01;;;;;;;11.50;5.90;;;;;;;25.40;49.37;100818.78;5567640;32;33734;-54
2022/08/30 09:19:04;;;;;;;11.77;5.78;;;;;;;25.47;49.01;100818.09;5567967;32;33724;-54
2022/08/30 09:22:20;;;;;;;15.20;6.05;;;;;;;25.51;50.62;100821.66;5566797;32;34497;-54
2022/08/30 09:25:31;;;;;;;13.27;5.32;;;;;;;25.56;49.53;100813.09;5567392;32;33749;-55
2022/08/30 09:28:46;;;;;;;12.93;5.80;;;;;;;25.65;48.42;100807.34;5567859;32;33811;-54
2022/08/30 09:31:52;;;;;;;8.55;5.45;;;;;;;25.75;48.32;100801.19;5562152;32;34490;-54
2022/08/30 09:35:35;;;;;;;10.68;5.80;;;;;;;25.73;48.23;100804.31;5569258;32;34297;-54
2022/08/30 09:38:37;;;;;;;21.58;6.32;;;;;;;25.77;49.13;100801.62;5567768;32;33785;-54
2022/08/30 09:41:42;;;;;;;12.40;5.25;;;;;;;25.86;47.34;100802.16;5567746;32;33759;-54
2022/08/30 09:44:45;;;;;;;17.15;6.37;;;;;;;25.82;46.58;100797.78;5568833;32;34373;-54
2022/08/30 09:47:47;;;;;;;7.20;5.28;;;;;;;25.80;46.85;100789.09;5567780;32;34324;-54
2022/08/30 09:51:02;;;;;;;12.85;5.00;;;;;;;25.84;46.46;100787.22;5568233;32;33649;-54
2022/08/30 09:54:17;;;;;;;;;;;;;;;25.89;46.94;100786.88;5568623;32;33652;-54
2022/08/30 09:57:28;;;;;;;;;;;;;;;25.92;47.54;100777.88;5569083;32;33791;-54
2022/08/30 10:00:49;;;;;;;8.40;5.53;;;;;;;25.91;47.60;100777.09;5568792;32;33169;-54
2022/08/30 10:04:08;;;;;;;13.98;6.00;;;;;;;25.94;47.20;100773.59;5567513;32;32973;-54
2022/08/30 10:07:20;;;;;;;9.63;5.75;;;;;;;25.95;46.87;100769.69;5566614;32;33639;-54
2022/08/30 10:10:45;;;;;;;9.73;5.47;;;;;;;25.94;46.49;100770.06;5567735;32;33614;-55
2022/08/30 10:13:58;;;;;;;9.30;5.55;;;;;;;25.91;46.86;100766.09;5565315;32;33613;-55
2022/08/30 10:17:11;;;;;;;8.45;5.80;;;;;;;25.94;47.24;100770.06;5567970;32;33736;-55
2022/08/30 10:20:18;;;;;;;10.10;5.68;;;;;;;25.99;47.61;100770.53;5568593;32;33670;-55
2022/08/30 10:23:35;;;;;;;6.87;5.32;;;;;;;26.00;46.93;100766.59;5567697;32;33652;-55
2022/08/30 10:26:53;;;;;;;10.50;5.62;;;;;;;26.01;46.10;100764.66;5566596;32;33739;-55
2022/08/30 10:30:01;;;;;;;16.60;5.90;;;;;;;25.97;47.30;100763.81;5569221;32;34361;-55
2022/08/30 10:33:19;;;;;;;11.63;5.55;;;;;;;26.05;47.80;100757.22;5568449;32;33666;-55
2022/08/30 10:36:30;;;;;;;8.60;5.18;;;;;;;25.99;46.45;100761.47;5568292;32;34365;-55
2022/08/30 10:39:41;;;;;;;8.30;5.53;;;;;;;25.96;46.20;100756.72;5565900;32;33181;-55
2022/08/30 10:42:49;;;;;;;7.93;5.75;;;;;;;26.00;46.94;100746.59;5567576;32;33736;-55
2022/08/30 10:45:58;;;;;;;9.23;6.37;;;;;;;26.01;47.68;100748.16;5565709;32;34325;-55
2022/08/30 10:49:04;;;;;;;7.85;5.68;;;;;;;26.07;48.09;100741.16;5568464;32;34376;-55
2022/08/30 10:52:33;;;;;;;10.80;5.57;;;;;;;26.10;47.53;100742.37;5569061;32;34457;-55
2022/08/30 10:55:44;;;;;;;8.10;5.50;;;;;;;26.11;46.81;100732.97;5567870;32;34314;-55
2022/08/30 10:58:53;;;;;;;9.55;5.95;;;;;;;26.14;47.13;100729.47;5569168;32;33767;-55
2022/08/30 11:02:17;;;;;;;8.30;6.33;;;;;;;26.21;46.55;100732.28;5569010;32;33767;-55
2022/08/30 11:05:53;;;;;;;10.35;5.95;;;;;;;26.25;46.73;100725.63;5568863;32;33666;-54
2022/08/30 11:09:13;;;;;;;11.57;5.70;;;;;;;26.35;46.34;100718.66;5568197;32;33483;-55
2022/08/30 11:12:21;;;;;;;8.85;5.70;;;;;;;26.30;46.52;100716.25;5568290;32;33751;-55
2022/08/30 11:15:31;;;;;;;8.20;6.00;;;;;;;26.52;46.37;100719.22;5568639;32;34339;-55
2022/08/30 11:18:50;;;;;;;13.27;5.93;;;;;;;26.49;46.56;100718.03;5568659;32;33671;-55
2022/08/30 11:22:15;;;;;;;8.00;5.65;;;;;;;26.40;46.94;100710.06;5568041;32;33806;-55
2022/08/30 11:25:45;;;;;;;7.30;6.00;;;;;;;26.35;46.30;100706.88;5567700;32;34374;-55
2022/08/30 11:28:58;;;;;;;10.40;5.87;;;;;;;26.37;46.21;100696.31;5568573;32;33773;-55
2022/08/30 11:32:12;;;;;;;11.02;6.35;;;;;;;26.39;46.82;100691.19;5568594;32;33673;-55
2022/08/30 11:35:40;;;;;;;11.65;5.97;;;;;;;26.48;47.25;100694.44;5555555;32;33919;-55
2022/08/30 11:38:48;;;;;;;8.65;6.03;;;;;;;26.55;46.79;100694.50;5549229;32;33793;-55
2022/08/30 11:42:29;;;;;;;26.83;7.75;;;;;;;26.61;46.13;100687.47;5549381;32;33657;-55
2022/08/30 11:45:34;;;;;;;7.07;5.62;;;;;;;26.64;48.22;100680.44;5540938;32;33530;-55
2022/08/30 11:48:42;;;;;;;12.77;6.00;;;;;;;26.70;46.57;100684.41;5549011;32;33704;-55
2022/08/30 11:52:10;;;;;;;16.37;6.97;;;;;;;26.73;46.14;100677.34;5549379;32;33767;-58
2022/08/30 11:55:45;;;;;;;8.18;6.00;;;;;;;26.71;46.79;100663.97;5549114;32;34549;-57
2022/08/30 11:58:56;;;;;;;7.97;5.90;;;;;;;26.65;45.44;100663.53;5549013;32;34302;-57
2022/08/30 12:02:00;;;;;;;9.20;5.95;;;;;;;26.66;46.09;100659.62;5549032;32;34432;-58
2022/08/30 12:05:03;;;;;;;10.48;6.25;;;;;;;26.69;46.33;100666.34;5549005;32;33768;-57
2022/08/30 12:08:37;;;;;;;12.30;6.53;;;;;;;26.72;46.57;100657.28;5549287;32;33766;-57
2022/08/30 12:12:04;;;;;;;9.57;6.05;;;;;;;26.77;45.87;100656.16;5538266;32;34056;-57
2022/08/30 12:15:27;;;;;;;9.80;5.55;;;;;;;26.87;46.04;100644.44;5548929;32;33920;-57
2022/08/30 12:18:37;;;;;;;8.73;5.60;;;;;;;26.96;44.77;100641.34;5548754;32;33748;-58
2022/08/30 12:21:41;;;;;;;9.68;6.65;;;;;;;26.90;45.45;100641.69;5548873;32;34199;-57
2022/08/30 12:24:50;;;;;;;9.27;6.13;;;;;;;26.91;46.46;100634.22;5549680;32;34350;-58
2022/08/30 12:28:12;;;;;;;6.65;5.47;;;;;;;26.99;45.18;100635.84;5551293;32;33850;-58
2022/08/30 12:31:21;;;;;;;11.65;6.00;;;;;;;27.04;45.29;100626.44;5551301;32;33640;-57
2022/08/30 12:34:48;;;;;;;10.25;6.30;;;;;;;27.05;46.32;100617.81;5551427;32;33650;-58
2022/08/30 12:37:58;;;;;;;7.07;5.70;;;;;;;27.00;46.28;100620.91;5553737;32;33562;-58
2022/08/30 12:41:01;;;;;;;7.53;5.37;;;;;;;27.04;45.05;100616.22;5569082;32;33585;-58
2022/08/30 12:44:14;;;;;;;13.95;7.70;;;;;;;27.09;45.73;100606.81;5566222;32;33705;-58
2022/08/30 12:47:22;;;;;;;11.77;6.30;;;;;;;27.22;46.16;100602.56;5570333;32;33174;-57
2022/08/30 12:50:30;;;;;;;9.05;5.15;;;;;;;27.19;45.75;100600.59;5570719;32;33732;-58
2022/08/30 12:53:41;;;;;;;9.13;5.70;;;;;;;27.26;45.62;100591.56;5570580;32;33907;-57
2022/08/30 12:57:06;;;;;;;19.20;6.60;;;;;;;27.37;45.06;100589.63;5570641;32;33450;-58
2022/08/30 13:00:37;;;;;;;13.98;6.45;;;;;;;27.33;45.30;100584.09;5570562;32;33645;-58
2022/08/30 13:03:40;;;;;;;24.48;8.00;;;;;;;27.32;46.10;100582.53;5570205;32;34007;-58
2022/08/30 13:06:51;;;;;;;7.57;5.60;;;;;;;27.32;47.43;100579.00;5569925;32;33528;-58
2022/08/30 13:10:18;;;;;;;9.57;5.53;;;;;;;27.35;45.34;100576.25;5569859;32;34456;-58
2022/08/30 13:13:43;;;;;;;7.55;5.43;;;;;;;27.38;45.62;100583.75;5570238;32;34387;-58
2022/08/30 13:16:46;;;;;;;11.50;5.60;;;;;;;27.43;45.12;100579.81;5570038;32;33746;-58
2022/08/30 13:20:16;;;;;;;13.02;5.57;;;;;;;27.44;44.28;100577.84;5570028;32;33794;-58
2022/08/30 13:23:23;;;;;;;8.13;5.65;;;;;;;27.54;42.94;100575.09;5568322;31;33632;-58
2022/08/30 13:26:26;;;;;;;12.75;5.70;;;;;;;27.60;43.00;100565.28;5570146;32;33598;-57
2022/08/30 13:29:28;;;;;;;13.15;5.95;;;;;;;27.54;43.94;100566.06;5570082;32;33746;-57
2022/08/30 13:32:36;;;;;;;19.10;6.37;;;;;;;27.45;44.38;100558.19;5570367;32;33726;-58
2022/08/30 13:35:41;;;;;;;6.25;5.20;;;;;;;27.45;44.35;100555.44;5569849;32;33558;-57
2022/08/30 13:38:43;;;;;;;8.32;5.32;;;;;;;27.42;44.40;100547.94;5570114;32;34116;-57
2022/08/30 13:41:46;;;;;;;12.18;5.47;;;;;;;27.37;43.62;100551.06;5570096;32;33769;-58
2022/08/30 13:44:48;;;;;;;9.60;5.35;;;;;;;27.45;43.68;100549.13;5569702;32;33633;-58
2022/08/30 13:47:50;;;;;;;13.38;6.15;;;;;;;27.32;43.97;100545.97;5569971;32;33629;-58
2022/08/30 13:50:54;;;;;;;35.85;8.07;;;;;;;27.31;44.95;100547.12;5569658;32;34374;-58
2022/08/30 13:53:56;;;;;;;29.73;6.85;;;;;;;27.28;45.48;100545.94;5570054;32;34280;-58
2022/08/30 13:56:59;;;;;;;22.90;5.85;;;;;;;27.28;44.53;100534.16;5569941;32;33640;-58
2022/08/30 14:00:08;;;;;;;12.60;6.00;;;;;;;27.31;44.80;100530.62;5570186;32;33654;-58
2022/08/30 14:03:14;;;;;;;44.17;6.95;;;;;;;27.37;44.20;100537.31;5569656;32;35282;-59
2022/08/30 14:06:17;;;;;;;17.83;6.10;;;;;;;27.39;44.86;100529.47;5569719;32;34480;-55
2022/08/30 14:09:35;;;;;;;13.93;6.03;;;;;;;27.36;45.01;100528.28;5569804;32;34255;-55
2022/08/30 14:12:37;;;;;;;14.02;6.40;;;;;;;27.34;44.30;100519.59;5569879;32;33779;-55
2022/08/30 14:16:01;;;;;;;13.60;5.90;;;;;;;27.29;44.56;100522.75;5569568;32;34378;-55
2022/08/30 14:19:24;;;;;;;20.40;6.18;;;;;;;27.27;44.76;100513.31;5569543;32;33618;-56
2022/08/30 14:22:26;;;;;;;19.92;6.15;;;;;;;27.27;44.43;100513.31;5568906;32;33661;-55
2022/08/30 14:25:28;;;;;;;26.15;6.82;;;;;;;27.23;44.49;100516.06;5569192;32;33693;-55
2022/08/30 14:28:31;;;;;;;11.10;5.30;;;;;;;27.20;45.07;100505.06;5569431;32;33745;-55
2022/08/30 14:31:34;;;;;;;11.12;5.90;;;;;;;27.16;45.10;100503.06;5569750;32;33777;-55
2022/08/30 14:34:36;;;;;;;8.95;5.45;;;;;;;27.13;45.08;100506.59;5569275;32;34323;-55
2022/08/30 14:37:38;;;;;;;12.43;6.07;;;;;;;27.10;46.01;100501.84;5568477;32;33354;-55
2022/08/30 14:40:41;;;;;;;15.77;5.82;;;;;;;27.05;46.59;100507.75;5568642;32;34378;-55
2022/08/30 14:43:44;;;;;;;6.72;5.60;;;;;;;27.14;45.90;100505.41;5569423;32;34463;-55
2022/08/30 14:46:47;;;;;;;9.70;5.85;;;;;;;27.03;45.41;100510.09;5567654;32;33624;-55
2022/08/30 14:49:52;;;;;;;11.82;5.60;;;;;;;27.04;45.43;100506.16;5569050;32;33800;-55
